Flight Track Log - Related Links

Times and Time Zones

All times are in EDT time to prevent confusion due to time zone crossing. See the SWA2003 flight status page for this flight to view local times or setup timezone preferences in your user account.

Time Position Orientation Groundspeed Altitude Reporting Facility
EDT Latitude Longitude Course Direction KTS MPH feet Rate Location/Type
Fri 06:11:34 PM 39.1333 -76.6167 122° Southeast 197 227 2,400  Level Potomac TRACON
Fri 06:13:13 PM 39.0828 -76.5114 122° Southeast 225 259 6,900 2,868 Climbing Washington Center
Fri 06:14:13 PM 39.0772 -76.4231 95° East 232 267 10,000 2,350 Climbing Washington Center
Fri 06:15:13 PM 39.1050 -76.2978 74° East 288 331 11,600 2,550 Climbing Washington Center
Fri 06:16:13 PM 39.1392 -76.1403 74° East 367 422 15,100 3,100 Climbing Washington Center
Fri 06:17:13 PM 39.1733 -75.9825 74° East 391 450 17,800 3,000 Climbing Washington Center
Fri 06:18:13 PM 39.2528 -75.8542 51° Northeast 434 499 21,100 2,800 Climbing Washington Center
Fri 06:19:13 PM 39.3425 -75.7258 48° Northeast 452 520 23,400 2,200 Climbing Washington Center
Fri 06:20:13 PM 39.4344 -75.5942 48° Northeast 471 542 25,500 2,150 Climbing Washington Center
Fri 06:21:13 PM 39.5322 -75.4569 47° Northeast 496 571 27,700 1,700 Climbing Washington Center
Fri 06:22:13 PM 39.6278 -75.3167 48° Northeast 507 583 28,900 1,600 Climbing Washington Center
Fri 06:23:13 PM 39.7275 -75.1761 47° Northeast 518 596 30,900 1,337 Climbing Washington Center
Fri 06:25:17 PM 39.9225 -74.8958 48° Northeast 552 635 33,000 880 Climbing New York Center
Fri 06:26:17 PM 40.0233 -74.7528 47° Northeast 541 623 33,600 1,785 Climbing New York Center
Fri 06:27:18 PM 40.1306 -74.6014 47° Northeast 520 598 36,600 1,686 Climbing New York Center
Fri 06:28:18 PM 40.2500 -74.5183 28° Northeast 482 555 37,000 203 Climbing New York Center
Fri 06:29:16 PM 40.3761 -74.4844 12° North 465 535 37,000  Level New York Center
Fri 06:30:17 PM 40.4728 -74.4594 11° North 460 529 37,000  Level New York Center
Fri 06:31:59 PM 40.6975 -74.3947 12° North 451 519 37,000  Level Boston Center
Fri 06:33:00 PM 40.8397 -74.3606 10° North 458 527 37,000  Level Boston Center
Fri 06:34:00 PM 40.9653 -74.3283 11° North 458 527 37,000  Level Boston Center
Fri 06:35:00 PM 41.0931 -74.2881 13° North 458 527 37,000  Level Boston Center
Fri 06:35:58 PM 41.2167 -74.2531 12° North 458 527 37,000  Level Boston Center
Fri 06:36:59 PM 41.3319 -74.2175 13° North 458 527 37,000  Level Boston Center
Fri 06:37:59 PM 41.4575 -74.1822 12° North 458 527 37,000 -555 Level Boston Center
Fri 06:38:58 PM 41.6019 -74.1419 12° North 458 527 35,900 -1,250 Descending Boston Center
Fri 06:39:59 PM 41.7339 -74.1036 12° North 470 541 34,500 -1,350 Descending Boston Center
Fri 06:40:58 PM 41.8656 -74.0681 11° North 476 548 33,200 -1,563 Descending Boston Center
Fri 06:41:58 PM 42.0036 -74.0269 12° North 483 556 31,400 -2,479 Descending Boston Center
Fri 06:42:59 PM 42.1419 -73.9856 13° North 490 564 28,200 -2,902 Descending Boston Center
Fri 06:44:00 PM 42.2778 -73.9414 14° North 495 570 25,500 -2,083 Descending Boston Center
Fri 06:45:00 PM 42.3611 -73.8000 51° Northeast 464 534 24,000 -1,128 Descending Boston Center
Fri 06:46:13 PM 42.4131 -73.6239 68° East 461 531 23,000 -1,015 Descending Boston Center
Fri 06:47:10 PM 42.4753 -73.4169 68° East 471 542 21,800 -1,119 Descending Boston Center
Fri 06:48:11 PM 42.5269 -73.2233 70° East 504 580 20,800 -1,050 Descending Boston Center
Fri 06:49:10 PM 42.5717 -73.0744 68° East 485 558 19,700 -843 Descending Boston Center
Fri 06:50:12 PM 42.5992 -72.9761 69° East 472 543 19,100 -689 Descending Boston Center
Fri 06:51:12 PM 42.6500 -72.7872 70° East 432 497 18,300 -1,008 Descending Boston Center
Fri 06:52:11 PM 42.6794 -72.6406 75° East 411 473 17,100 -1,412 Descending Boston Center
Fri 06:53:11 PM 42.7067 -72.4967 76° East 399 459 15,500 -1,636 Descending Boston Center
Fri 06:54:12 PM 42.7358 -72.3553 74° East 394 453 13,800 -1,866 Descending Boston Center
Fri 06:55:10 PM 42.7650 -72.2053 75° East 375 432 11,800 -2,136 Descending Boston Center
Fri 06:56:10 PM 42.7917 -72.0694 75° East 369 425 9,600 -1,686 Descending Boston Center
Fri 06:57:11 PM 42.8161 -71.9475 75° East 343 395 8,400 -2,132 Descending Boston Center
Fri 06:58:11 PM 42.8261 -71.8456 82° East 311 358 5,300 -2,132 Descending Boston Center
Fri 06:59:12 PM 42.8150 -71.7467 99° East 256 295 4,100 -992 Descending Boston Center
Fri 07:00:12 PM 42.8042 -71.6817 103° East 204 235 3,300 -555 Descending Boston Center
Fri 07:01:11 PM 42.8081 -71.6081 86° East 176 203 3,000 -605 Descending Boston Center
Fri 07:02:11 PM 42.8325 -71.5681 50° Northeast 154 177 2,100 -496 Descending Boston Center
Fri 07:03:12 PM 42.8656 -71.5281 42° Northeast 149 171 2,000 -403 Descending Boston Center
Fri 07:04:10 PM 42.8903 -71.4964 43° Northeast 136 157 1,300 -706 Descending Boston Center
Fri 07:05:11 PM 42.9172 -71.4619 43° Northeast 120 138 600 -443 Descending Boston Center
Fri 07:06:12 PM 42.9419 -71.4361 37° Northeast 120 138 400 9,277 Descending Boston Center
Fri 07:07:10 PM 42.9689 -71.4072 38° Northeast 120 138 19,000 8,455 Climbing Boston Center
Fri 07:08:24 PM 42.9936 -71.3786 40° Northeast 120 138 19,000  Level Boston Center
Fri 07:10:00 PM 42.9328 -71.4358 316° Northwest  Level Estimated
Fri 07:17:00 PM 42.9328 -71.4358 316° Northwest  Level Estimated
Fri 07:18:00 PM 42.9328 -71.4358 316° Northwest  Level Estimated
Fri 07:19:00 PM 42.9328 -71.4358 316° Northwest  Level Estimated
Fri 07:20:00 PM 42.9328 -71.4358 316° Northwest  Level Estimated
Fri 07:21:00 PM 42.9328 -71.4358 316° Northwest  Level Estimated
Fri 07:22:00 PM 42.9328 -71.4358 316° Northwest  Level Estimated

Login

Don't have an account? Register now (free) for customized features, flight alerts, and more!